Weather at El Cenizo Airport

Public forecast

Using degrees Celsius for public forecast. Weather courtesy of forecast.io.

Closest aviation weather report (METAR) to El Cenizo Airport

Closest report is Ignacio Agramonte International Airport, 34.7 nm (64.2 km) ENE.

2024/04/24 11:50 (retrieved 50 minutes ago)

MUCM 241150Z 04007KT 8000 FEW020 23/22 Q1018

Closest aviation forecast (TAF) to El Cenizo Airport

Closest forecast is Ignacio Agramonte International Airport, 34.7 nm (64.2 km) ENE.

2024/04/24 12:07 (retrieved 33 minutes ago)

TAF MUCM 241100Z 2412/2512 VRB05KT 9000 SCT020 BECMG 2415/2416 02012KT TEMPO 2417/2424 BKN020 BECMG 2500/2503 02007KT